Eviapetrol I — SY5401 — position and weather

sailwx.info

Track history (hours):
 
Tides and Currents Weather Stations Pressure Air Temp Water Temp Dewpoint Dewpoint Depression Visibility Wind Speed Wind Dir Waves Ship Positions

Eviapetrol I

Last reported at 2016-Jun-24 09:33 UTC. Time now 2016-Jun-26 21:00 UTC.
Position N 37°32' E 023°57'.

Length 75 m; draft 5 m.

Type: Tanker. MMSI: 240285000.

Date/timePositionNaut miles runAvg speedWind from/ knotsBaromVisibWave heightAir tempDewpointWater temp
2016-Jun-24 09:33N 37°32' E 023°57'10 9.7
2016-Jun-24 08:33N 37°37' E 023°47'1010.0
2016-Jun-24 07:33N 37°45' E 023°39'18 5.8
2016-Jun-24 04:32N 38°01' E 023°31'1 1.2
2016-Jun-24 03:32N 38°02' E 023°30'0 0.0
2016-Jun-24 02:32N 38°02' E 023°30'0 0.0
2016-Jun-24 01:32N 38°02' E 023°30'0 0.0
2016-Jun-24 00:32N 38°02' E 023°30'0 0.0
2016-Jun-23 23:32N 38°02' E 023°30'0 0.0
2016-Jun-23 22:32N 38°02' E 023°30'0 0.0
2016-Jun-23 21:32N 38°02' E 023°30'0 0.0
2016-Jun-23 20:32N 38°02' E 023°30'0 0.0
2016-Jun-23 19:32N 38°02' E 023°30'0 0.0
2016-Jun-23 18:32N 38°02' E 023°30'0 0.0
2016-Jun-23 17:32N 38°02' E 023°30'0 0.0
2016-Jun-23 16:32N 38°02' E 023°30'0 0.1
2016-Jun-23 15:33N 38°02' E 023°30'4 4.4
2016-Jun-23 14:33N 37°58' E 023°33'8 7.7
2016-Jun-23 13:33N 37°52' E 023°38'1111.0
2016-Jun-23 12:33N 37°42' E 023°45'1111.2
2016-Jun-23 11:32N 37°34' E 023°55'59 9.8
2016-Jun-23 05:33N 37°20' E 025°06'1110.7
2016-Jun-23 04:33N 37°20' E 025°20'1110.7
2016-Jun-23 03:33N 37°23' E 025°33'129 2.5
2016-Jun-21 00:07N 35°47' E 023°45'610.6
2016-Jun-20 23:33N 35°52' E 023°40'1110.5
2016-Jun-20 22:32N 35°59' E 023°30'2210.1
2016-Jun-20 20:20N 36°18' E 023°15'911.1
2016-Jun-20 19:30N 36°27' E 023°17'1111.1
2016-Jun-20 18:29N 36°38' E 023°12'1011.1
2016-Jun-20 17:33N 36°48' E 023°11'1010.4
2016-Jun-20 16:33N 36°58' E 023°15'1010.1
2016-Jun-20 15:33N 37°06' E 023°22'10 9.9
2016-Jun-20 14:33N 37°13' E 023°30'1010.1
2016-Jun-20 13:33N 37°21' E 023°38'10 9.8
2016-Jun-20 12:33N 37°31' E 023°39'9 9.4
2016-Jun-20 11:33N 37°40' E 023°42'1010.0
2016-Jun-20 10:33N 37°49' E 023°37'9 8.7
2016-Jun-20 09:33N 37°58' E 023°33'4 3.6
2016-Jun-20 08:34N 38°01' E 023°33'2 2.2
2016-Jun-20 07:31N 38°02' E 023°36'0 0.0
2016-Jun-20 06:31N 38°02' E 023°36'0 0.0
2016-Jun-20 05:31N 38°02' E 023°36'0 0.0
2016-Jun-20 04:31N 38°02' E 023°36'0 0.0
2016-Jun-20 03:31N 38°02' E 023°36'0 0.0
2016-Jun-20 02:31N 38°02' E 023°36'0 0.0
2016-Jun-20 01:31N 38°02' E 023°36'0 0.0
2016-Jun-20 00:31N 38°02' E 023°36'0 0.0
2016-Jun-19 23:31N 38°02' E 023°36'0 0.0
2016-Jun-19 22:31N 38°02' E 023°36'0 0.0
2016-Jun-19 21:31N 38°02' E 023°36'0 0.0
2016-Jun-19 20:31N 38°02' E 023°36'0 0.0
2016-Jun-19 19:31N 38°02' E 023°36'0 0.0
2016-Jun-19 18:31N 38°02' E 023°36'0 0.5
2016-Jun-19 17:33N 38°01' E 023°35'3 1.5
2016-Jun-19 15:33N 38°01' E 023°31'0 0.1
2016-Jun-19 14:33N 38°01' E 023°31'0 0.0
2016-Jun-19 13:33N 38°01' E 023°31'0 0.0
2016-Jun-19 12:33N 38°01' E 023°31'5 4.9
2016-Jun-19 11:33N 37°60' E 023°26'9 8.9
2016-Jun-19 10:33N 37°55' E 023°16'1110.7
2016-Jun-19 09:33N 37°54' E 023°02'20 9.0
2016-Jun-19 07:19N 38°05' E 022°41'2111.1
2016-Jun-19 05:25N 38°14' E 022°17'2211.2
2016-Jun-19 03:29N 38°21' E 021°51'1011.2
2016-Jun-19 02:33N 38°17' E 021°38'2210.8
2016-Jun-19 00:33N 38°15' E 021°11'1110.2
2016-Jun-18 23:29N 38°20' E 020°58'1010.8
2016-Jun-18 22:32N 38°26' E 020°48'1111.3
2016-Jun-18 21:33N 38°32' E 020°36'9 8.6
2016-Jun-18 20:31N 38°38' E 020°28'2 0.0
2016-Jun-17 04:32N 38°40' E 020°29'10 9.8
2016-Jun-17 03:33N 38°32' E 020°36'1111.0
2016-Jun-17 02:33N 38°26' E 020°48'1511.2
2016-Jun-17 01:14N 38°17' E 021°03'810.9
2016-Jun-17 00:31N 38°15' E 021°12'6210.0
2016-Jun-16 18:18N 38°10' E 022°31'28 9.5
2016-Jun-16 15:24N 37°55' E 023°00'1 1.2
2016-Jun-16 14:33N 37°55' E 023°01'3 3.0
2016-Jun-16 13:33N 37°55' E 023°05'0 0.0
2016-Jun-16 12:33N 37°55' E 023°05'0 0.0
2016-Jun-16 11:33N 37°55' E 023°05'0 0.0
2016-Jun-16 10:30N 37°55' E 023°05'0 0.0
2016-Jun-16 09:24N 37°55' E 023°05'0 0.0
2016-Jun-16 08:33N 37°55' E 023°05'0 0.0
2016-Jun-16 07:33N 37°55' E 023°05'0 0.0
2016-Jun-16 06:30N 37°55' E 023°05'0 0.0
2016-Jun-16 05:33N 37°55' E 023°05'0 0.0
2016-Jun-16 04:33N 37°55' E 023°05'0 0.0
2016-Jun-16 03:33N 37°55' E 023°05'0 0.0
2016-Jun-16 02:33N 37°55' E 023°05'0 0.0
2016-Jun-16 01:27N 37°55' E 023°05'0 0.0
2016-Jun-16 00:33N 37°55' E 023°05'0 0.0
2016-Jun-15 23:33N 37°55' E 023°05'0 0.0
2016-Jun-15 22:33N 37°55' E 023°05'0 0.0
2016-Jun-15 21:33N 37°55' E 023°05'0 0.0
2016-Jun-15 20:33N 37°55' E 023°05'1 1.0
2016-Jun-15 19:33N 37°54' E 023°05'0 0.5
2016-Jun-15 18:33N 37°54' E 023°05'0 0.0
2016-Jun-15 17:15N 37°54' E 023°05'0 0.0
2016-Jun-15 16:24N 37°54' E 023°05'0 0.0
2016-Jun-15 15:31N 37°54' E 023°05'0 0.0
2016-Jun-15 14:33N 37°54' E 023°05'0 0.0
2016-Jun-15 13:29N 37°54' E 023°05'0 0.0
2016-Jun-15 12:27N 37°54' E 023°05'0 0.0
2016-Jun-15 11:20N 37°54' E 023°05'0 0.0
2016-Jun-15 10:33N 37°54' E 023°05'0 0.0
2016-Jun-15 09:31N 37°54' E 023°05'0 0.0
2016-Jun-15 08:32N 37°54' E 023°05'0 0.0
2016-Jun-15 07:31N 37°54' E 023°05'28 8.3
2016-Jun-15 04:10N 38°08' E 022°34'1211.3
2016-Jun-15 03:03N 38°14' E 022°20'3810.5
2016-Jun-14 23:24N 38°15' E 021°31'911.2
2016-Jun-14 22:33N 38°15' E 021°19'1110.8
2016-Jun-14 21:33N 38°16' E 021°05'1110.8
2016-Jun-14 20:33N 38°23' E 020°55'1210.9
2016-Jun-14 19:28N 38°30' E 020°43'  
Track history (hours):
 
Tides and Currents Weather Stations Pressure Air Temp Water Temp Dewpoint Dewpoint Depression Visibility Wind Speed Wind Dir Waves Ship Positions

Eviapetrol I

Last reported at 2016-Jun-24 09:33 UTC. Time now 2016-Jun-26 21:00 UTC.
Position N 37°32' E 023°57'.

Length 75 m; draft 5 m.

Type: Tanker. MMSI: 240285000.

Date/timePositionNaut miles runAvg speedWind from/ knotsBaromVisibWave heightAir tempDewpointWater temp
2016-Jun-24 09:33N 37°32' E 023°57'10 9.7
2016-Jun-24 08:33N 37°37' E 023°47'1010.0
2016-Jun-24 07:33N 37°45' E 023°39'18 5.8
2016-Jun-24 04:32N 38°01' E 023°31'1 1.2
2016-Jun-24 03:32N 38°02' E 023°30'0 0.0
2016-Jun-24 02:32N 38°02' E 023°30'0 0.0
2016-Jun-24 01:32N 38°02' E 023°30'0 0.0
2016-Jun-24 00:32N 38°02' E 023°30'0 0.0
2016-Jun-23 23:32N 38°02' E 023°30'0 0.0
2016-Jun-23 22:32N 38°02' E 023°30'0 0.0
2016-Jun-23 21:32N 38°02' E 023°30'0 0.0
2016-Jun-23 20:32N 38°02' E 023°30'0 0.0
2016-Jun-23 19:32N 38°02' E 023°30'0 0.0
2016-Jun-23 18:32N 38°02' E 023°30'0 0.0
2016-Jun-23 17:32N 38°02' E 023°30'0 0.0
2016-Jun-23 16:32N 38°02' E 023°30'0 0.1
2016-Jun-23 15:33N 38°02' E 023°30'4 4.4
2016-Jun-23 14:33N 37°58' E 023°33'8 7.7
2016-Jun-23 13:33N 37°52' E 023°38'1111.0
2016-Jun-23 12:33N 37°42' E 023°45'1111.2
2016-Jun-23 11:32N 37°34' E 023°55'59 9.8
2016-Jun-23 05:33N 37°20' E 025°06'1110.7
2016-Jun-23 04:33N 37°20' E 025°20'1110.7
2016-Jun-23 03:33N 37°23' E 025°33'129 2.5
2016-Jun-21 00:07N 35°47' E 023°45'610.6
2016-Jun-20 23:33N 35°52' E 023°40'1110.5
2016-Jun-20 22:32N 35°59' E 023°30'2210.1
2016-Jun-20 20:20N 36°18' E 023°15'911.1
2016-Jun-20 19:30N 36°27' E 023°17'1111.1
2016-Jun-20 18:29N 36°38' E 023°12'1011.1
2016-Jun-20 17:33N 36°48' E 023°11'1010.4
2016-Jun-20 16:33N 36°58' E 023°15'1010.1
2016-Jun-20 15:33N 37°06' E 023°22'10 9.9
2016-Jun-20 14:33N 37°13' E 023°30'1010.1
2016-Jun-20 13:33N 37°21' E 023°38'10 9.8
2016-Jun-20 12:33N 37°31' E 023°39'9 9.4
2016-Jun-20 11:33N 37°40' E 023°42'1010.0
2016-Jun-20 10:33N 37°49' E 023°37'9 8.7
2016-Jun-20 09:33N 37°58' E 023°33'4 3.6
2016-Jun-20 08:34N 38°01' E 023°33'2 2.2
2016-Jun-20 07:31N 38°02' E 023°36'0 0.0
2016-Jun-20 06:31N 38°02' E 023°36'0 0.0
2016-Jun-20 05:31N 38°02' E 023°36'0 0.0
2016-Jun-20 04:31N 38°02' E 023°36'0 0.0
2016-Jun-20 03:31N 38°02' E 023°36'0 0.0
2016-Jun-20 02:31N 38°02' E 023°36'0 0.0
2016-Jun-20 01:31N 38°02' E 023°36'0 0.0
2016-Jun-20 00:31N 38°02' E 023°36'0 0.0
2016-Jun-19 23:31N 38°02' E 023°36'0 0.0
2016-Jun-19 22:31N 38°02' E 023°36'0 0.0
2016-Jun-19 21:31N 38°02' E 023°36'0 0.0
2016-Jun-19 20:31N 38°02' E 023°36'0 0.0
2016-Jun-19 19:31N 38°02' E 023°36'0 0.0
2016-Jun-19 18:31N 38°02' E 023°36'0 0.5
2016-Jun-19 17:33N 38°01' E 023°35'3 1.5
2016-Jun-19 15:33N 38°01' E 023°31'0 0.1
2016-Jun-19 14:33N 38°01' E 023°31'0 0.0
2016-Jun-19 13:33N 38°01' E 023°31'0 0.0
2016-Jun-19 12:33N 38°01' E 023°31'5 4.9
2016-Jun-19 11:33N 37°60' E 023°26'9 8.9
2016-Jun-19 10:33N 37°55' E 023°16'1110.7
2016-Jun-19 09:33N 37°54' E 023°02'20 9.0
2016-Jun-19 07:19N 38°05' E 022°41'2111.1
2016-Jun-19 05:25N 38°14' E 022°17'2211.2
2016-Jun-19 03:29N 38°21' E 021°51'1011.2
2016-Jun-19 02:33N 38°17' E 021°38'2210.8
2016-Jun-19 00:33N 38°15' E 021°11'1110.2
2016-Jun-18 23:29N 38°20' E 020°58'1010.8
2016-Jun-18 22:32N 38°26' E 020°48'1111.3
2016-Jun-18 21:33N 38°32' E 020°36'9 8.6
2016-Jun-18 20:31N 38°38' E 020°28'2 0.0
2016-Jun-17 04:32N 38°40' E 020°29'10 9.8
2016-Jun-17 03:33N 38°32' E 020°36'1111.0
2016-Jun-17 02:33N 38°26' E 020°48'1511.2
2016-Jun-17 01:14N 38°17' E 021°03'810.9
2016-Jun-17 00:31N 38°15' E 021°12'6210.0
2016-Jun-16 18:18N 38°10' E 022°31'28 9.5
2016-Jun-16 15:24N 37°55' E 023°00'1 1.2
2016-Jun-16 14:33N 37°55' E 023°01'3 3.0
2016-Jun-16 13:33N 37°55' E 023°05'0 0.0
2016-Jun-16 12:33N 37°55' E 023°05'0 0.0
2016-Jun-16 11:33N 37°55' E 023°05'0 0.0
2016-Jun-16 10:30N 37°55' E 023°05'0 0.0
2016-Jun-16 09:24N 37°55' E 023°05'0 0.0
2016-Jun-16 08:33N 37°55' E 023°05'0 0.0
2016-Jun-16 07:33N 37°55' E 023°05'0 0.0
2016-Jun-16 06:30N 37°55' E 023°05'0 0.0
2016-Jun-16 05:33N 37°55' E 023°05'0 0.0
2016-Jun-16 04:33N 37°55' E 023°05'0 0.0
2016-Jun-16 03:33N 37°55' E 023°05'0 0.0
2016-Jun-16 02:33N 37°55' E 023°05'0 0.0
2016-Jun-16 01:27N 37°55' E 023°05'0 0.0
2016-Jun-16 00:33N 37°55' E 023°05'0 0.0
2016-Jun-15 23:33N 37°55' E 023°05'0 0.0
2016-Jun-15 22:33N 37°55' E 023°05'0 0.0
2016-Jun-15 21:33N 37°55' E 023°05'0 0.0
2016-Jun-15 20:33N 37°55' E 023°05'1 1.0
2016-Jun-15 19:33N 37°54' E 023°05'0 0.5
2016-Jun-15 18:33N 37°54' E 023°05'0 0.0
2016-Jun-15 17:15N 37°54' E 023°05'0 0.0
2016-Jun-15 16:24N 37°54' E 023°05'0 0.0
2016-Jun-15 15:31N 37°54' E 023°05'0 0.0
2016-Jun-15 14:33N 37°54' E 023°05'0 0.0
2016-Jun-15 13:29N 37°54' E 023°05'0 0.0
2016-Jun-15 12:27N 37°54' E 023°05'0 0.0
2016-Jun-15 11:20N 37°54' E 023°05'0 0.0
2016-Jun-15 10:33N 37°54' E 023°05'0 0.0
2016-Jun-15 09:31N 37°54' E 023°05'0 0.0
2016-Jun-15 08:32N 37°54' E 023°05'0 0.0
2016-Jun-15 07:31N 37°54' E 023°05'28 8.3
2016-Jun-15 04:10N 38°08' E 022°34'1211.3
2016-Jun-15 03:03N 38°14' E 022°20'3810.5
2016-Jun-14 23:24N 38°15' E 021°31'911.2
2016-Jun-14 22:33N 38°15' E 021°19'1110.8
2016-Jun-14 21:33N 38°16' E 021°05'1110.8
2016-Jun-14 20:33N 38°23' E 020°55'1210.9
2016-Jun-14 19:28N 38°30' E 020°43'  

Dump ship's entire track history